Aérodrome d'Arcachon-La Teste-de-Buch

LFCH · Département de la Gironde, Aquitaine-Limousin-Poitou-Charentes, France

METAR anciennes LFCH · Aérodrome d'Arcachon-La Teste-de-Buch

Tu vois ci-dessous les METAR des derniers jours. Sélectionne une année pour parcourir les METAR plus anciens, à partir de l'année 2007.

27 mai 2024

Temps Code Temps Temp. Vue Base cloud Vent METAR/SPECI
13:30
V
18 °C 10 km+ - 310° 310° 9 kt METAR LFBC 271130Z AUTO 31009KT 280V340 9999 FEW034 SCT041 18/10 Q1023 NOSIG
13:00
M
18 °C 10 km+ 2.900 ft 310° 310° 10 kt METAR LFBC 271100Z AUTO 31010KT 270V340 9999 BKN029 BKN036 BKN045 18/09 Q1023 NOSIG
12:30
M
17 °C 10 km+ 2.900 ft 320° 320° 10 kt METAR LFBC 271030Z AUTO 32010KT 280V350 9999 BKN029 BKN043 BKN054 17/11 Q1023 NOSIG
12:00
V
17 °C 10 km+ 3.100 ft 290° 290° 7 kt METAR LFBC 271000Z AUTO 29007KT 240V330 9999 BKN031 BKN043 BKN054 17/09 Q1023 NOSIG
11:30
M
17 °C 10 km+ 3.000 ft 290° 290° 6 kt METAR LFBC 270930Z AUTO 29006KT 230V360 9999 BKN030 BKN037 BKN068 17/10 Q1022 NOSIG
11:00
V
17 °C 10 km+ 7.000 ft 330° 330° 6 kt METAR LFBC 270900Z AUTO 33006KT 290V010 9999 FEW028 BKN070 OVC080 17/10 Q1022 NOSIG
10:30
V
16 °C 10 km+ 7.200 ft 340° 340° 6 kt METAR LFBC 270830Z AUTO 34006KT 300V010 9999 FEW027 OVC072 16/11 Q1023 NOSIG
10:00
V
16 °C 10 km+ - 330° 330° 6 kt METAR LFBC 270800Z AUTO 33006KT 300V010 CAVOK 16/11 Q1023 NOSIG
09:30
V
16 °C 10 km+ - 330° 330° 5 kt METAR LFBC 270730Z AUTO 33005KT 300V360 CAVOK 16/11 Q1022 NOSIG
09:00
V
16 °C 10 km+ - 340° 340° 4 kt METAR LFBC 270700Z AUTO 34004KT 300V020 CAVOK 16/11 Q1022 NOSIG
08:30
V
15 °C 10 km+ - 340° 340° 4 kt METAR LFBC 270630Z AUTO 34004KT 310V010 CAVOK 15/11 Q1022 NOSIG
08:00
V
15 °C 10 km+ - 340° 340° 3 kt METAR LFBC 270600Z AUTO 34003KT CAVOK 15/11 Q1022 NOSIG
07:30
V
15 °C 10 km+ - 340° 340° 3 kt METAR LFBC 270530Z AUTO 34003KT CAVOK 15/11 Q1021 NOSIG
07:00
V
15 °C 10 km+ - 340° 340° 3 kt METAR LFBC 270500Z AUTO 34003KT CAVOK 15/11 Q1021
06:30
V
15 °C 10 km+ - 340° 340° 4 kt METAR LFBC 270430Z AUTO 34004KT CAVOK 15/11 Q1021
06:00
V
15 °C 10 km+ - 330° 330° 4 kt METAR LFBC 270400Z AUTO 33004KT CAVOK 15/11 Q1021
05:30
V
15 °C 10 km+ - 340° 340° 5 kt METAR LFBC 270330Z AUTO 34005KT CAVOK 15/11 Q1021
05:00
V
15 °C 10 km+ - 330° 330° 5 kt METAR LFBC 270300Z AUTO 33005KT CAVOK 15/12 Q1021
04:30
V
15 °C 10 km+ - 320° 320° 3 kt METAR LFBC 270230Z AUTO 32003KT CAVOK 15/12 Q1021
04:00
V
15 °C 10 km+ 6.800 ft 310° 310° 4 kt METAR LFBC 270200Z AUTO 31004KT 9999 FEW017 OVC068 15/12 Q1021
03:30
V
15 °C 10 km+ - 300° 300° 3 kt METAR LFBC 270130Z AUTO 30003KT CAVOK 15/12 Q1021
03:00
V
15 °C 10 km+ - 310° 310° 2 kt METAR LFBC 270100Z AUTO 31002KT CAVOK 15/12 Q1021
02:30
V
14 °C 10 km+ 6.600 ft Var Var 3 kt METAR LFBC 270030Z AUTO VRB03KT 9999 FEW020 OVC066 14/12 Q1022
02:00
V
14 °C 10 km+ - 290° 290° 3 kt METAR LFBC 270000Z AUTO 29003KT CAVOK 14/12 Q1022
01:30
V
13 °C 10 km+ - 280° 280° 2 kt METAR LFBC 262330Z AUTO 28002KT CAVOK 13/11 Q1022
01:00
V
14 °C 10 km+ - 290° 290° 3 kt METAR LFBC 262300Z AUTO 29003KT CAVOK 14/12 Q1022
00:30
V
14 °C 10 km+ - 280° 280° 3 kt METAR LFBC 262230Z AUTO 28003KT CAVOK 14/12 Q1022
00:00
V
14 °C 10 km+ - 310° 310° 4 kt METAR LFBC 262200Z AUTO 31004KT CAVOK 14/11 Q1022

26 mai 2024

Temps Code Temps Temp. Vue Base cloud Vent METAR/SPECI
23:30
V
14 °C 10 km+ - 280° 280° 3 kt METAR LFBC 262130Z AUTO 28003KT 9999 FEW021 14/11 Q1022
23:00
V
15 °C 10 km+ - 290° 290° 3 kt METAR LFBC 262100Z AUTO 29003KT CAVOK 15/12 Q1022
22:30
V
15 °C 10 km+ - 300° 300° 3 kt METAR LFBC 262030Z AUTO 30003KT CAVOK 15/12 Q1022
22:00
V
16 °C 10 km+ - 310° 310° 3 kt METAR LFBC 262000Z AUTO 31003KT CAVOK 16/12 Q1022
21:30
V
16 °C 10 km+ - 300° 300° 5 kt METAR LFBC 261930Z AUTO 30005KT CAVOK 16/12 Q1021
21:00
V
16 °C 10 km+ 6.400 ft 310° 310° 5 kt METAR LFBC 261900Z AUTO 31005KT 280V340 9999 FEW022 OVC064 16/12 Q1021
20:30
V
16 °C 10 km+ 6.400 ft 320° 320° 7 kt METAR LFBC 261830Z AUTO 32007KT 290V350 9999 SCT020 OVC064 16/12 Q1021
20:00
M
17 °C 10 km+ 2.000 ft 300° 300° 6 kt METAR LFBC 261800Z AUTO 30006KT 250V330 9999 BKN020 BKN026 BKN056 17/12 Q1021
19:30
M
17 °C 10 km+ 1.800 ft 300° 300° 7 kt METAR LFBC 261730Z AUTO 30007KT 260V330 9999 BKN018 BKN025 BKN032 17/13 Q1021
19:00
V
17 °C 10 km+ 5.800 ft 310° 310° 7 kt METAR LFBC 261700Z AUTO 31007KT 270V340 9999 FEW021 SCT031 OVC058 17/13 Q1021
18:30
M
17 °C 10 km+ 2.800 ft 310° 310° 8 kt METAR LFBC 261630Z AUTO 31008KT 280V340 9999 SCT020 BKN028 BKN034 17/12 Q1021
18:00
V
17 °C 10 km+ 3.700 ft 310° 310° 9 kt METAR LFBC 261600Z AUTO 31009KT 280V340 9999 FEW022 SCT029 BKN037 17/12 Q1021
17:30
M
18 °C 10 km+ 2.300 ft 300° 300° 8 kt METAR LFBC 261530Z AUTO 30008KT 9999 BKN023 BKN039 BKN058 18/13 Q1020
17:00
V
18 °C 10 km+ 6.000 ft 300° 300° 8 kt METAR LFBC 261500Z AUTO 30008KT 250V330 9999 FEW020 SCT029 BKN060 18/13 Q1020
16:30
V
18 °C 10 km+ 6.000 ft 300° 300° 6 kt METAR LFBC 261430Z AUTO 30006KT 230V330 9999 FEW021 SCT027 BKN060 18/13 Q1020
16:00
V
18 °C 10 km+ 6.200 ft 310° 310° 7 kt METAR LFBC 261400Z AUTO 31007KT 280V350 9999 FEW023 OVC062 18/13 Q1020
15:30
V
18 °C 10 km+ 6.000 ft 280° 280° 6 kt METAR LFBC 261330Z AUTO 28006KT 230V310 9999 SCT022 SCT029 OVC060 18/13 Q1020
15:00
M
17 °C 10 km+ 2.300 ft 290° 290° 6 kt METAR LFBC 261300Z AUTO 29006KT 270V330 9999 BKN023 OVC058 17/12 Q1021
14:30
V
17 °C 10 km+ - 290° 290° 6 kt METAR LFBC 261230Z AUTO 29006KT 260V330 CAVOK 17/12 Q1020
14:00
V
17 °C 10 km+ - 300° 300° 5 kt METAR LFBC 261200Z AUTO 30005KT 270V330 CAVOK 17/12 Q1020
13:30
V
17 °C 10 km+ 6.000 ft 300° 300° 6 kt METAR LFBC 261130Z AUTO 30006KT 260V330 9999 FEW025 OVC060 17/12 Q1020
13:00
V
17 °C 10 km+ 5.800 ft 300° 300° 5 kt METAR LFBC 261100Z AUTO 30005KT 270V330 9999 FEW022 OVC058 17/12 Q1020
12:30
V
17 °C 10 km+ 6.000 ft 290° 290° 6 kt METAR LFBC 261030Z AUTO 29006KT 250V330 9999 FEW023 OVC060 17/12 Q1020
12:00
M
17 °C 10 km+ 2.300 ft 310° 310° 6 kt METAR LFBC 261000Z AUTO 31006KT 270V350 9999 BKN023 BKN029 OVC056 17/12 Q1020
11:30
V
17 °C 10 km+ 6.200 ft 300° 300° 7 kt METAR LFBC 260930Z AUTO 30007KT 270V330 9999 FEW021 SCT026 OVC062 17/12 Q1020
11:00
M
17 °C 10 km+ 2.400 ft 300° 300° 9 kt METAR LFBC 260900Z AUTO 30009KT 9999 SCT017 BKN024 OVC066 17/13 Q1020
10:30
M
17 °C 10 km+ 2.700 ft 290° 290° 7 kt METAR LFBC 260830Z AUTO 29007KT 260V320 9999 FEW017 SCT022 BKN027 17/13 Q1019
10:00
V
16 °C 10 km+ 5.800 ft 280° 280° 5 kt METAR LFBC 260800Z AUTO 28005KT 250V320 9999 FEW017 BKN058 OVC070 16/13 Q1019
09:30
V
16 °C 10 km+ 7.200 ft 310° 310° 7 kt METAR LFBC 260730Z AUTO 31007KT 9999 FEW017 SCT058 BKN072 16/13 Q1019
09:00
M
17 °C 10 km+ 2.100 ft 310° 310° 6 kt METAR LFBC 260700Z AUTO 31006KT 270V340 9999 SCT016 BKN021 BKN028 17/13 Q1019
08:30
M
17 °C 10 km+ 1.500 ft 300° 300° 7 kt METAR LFBC 260630Z AUTO 30007KT 270V330 9999 BKN015 OVC130 17/13 Q1018
08:00
M
16 °C 10 km+ 2.600 ft 290° 290° 5 kt METAR LFBC 260600Z AUTO 29005KT 230V320 9999 SCT013 BKN026 BKN096 16/14 Q1018
07:30
V
16 °C 10 km+ 13.000 ft 280° 280° 5 kt METAR LFBC 260530Z AUTO 28005KT 9999 FEW016 SCT023 OVC130 16/14 Q1018
07:00
V
15 °C 10 km+ - 300° 300° 5 kt METAR LFBC 260500Z AUTO 30005KT 270V330 CAVOK 15/13 Q1018
06:30
V
16 °C 10 km+ 13.000 ft 290° 290° 6 kt METAR LFBC 260430Z AUTO 29006KT 260V330 9999 FEW013 SCT110 BKN130 16/13 Q1017
06:00
M
16 °C 10 km+ 1.300 ft 300° 300° 6 kt METAR LFBC 260400Z AUTO 30006KT 270V330 9999 BKN013 BKN070 BKN100 16/13 Q1017
05:30
M
16 °C 10 km+ 1.700 ft 300° 300° 5 kt METAR LFBC 260330Z AUTO 30005KT 9999 SCT011 BKN017 OVC070 16/14 Q1017
05:00
V
16 °C 10 km+ 6.800 ft 290° 290° 7 kt METAR LFBC 260300Z AUTO 29007KT 250V330 9999 SCT015 OVC068 16/14 Q1017
04:30
M
16 °C 10 km+ 1.500 ft 290° 290° 9 kt METAR LFBC 260230Z AUTO 29009KT 9999 BKN015 BKN072 BKN100 16/14 Q1017
04:00
M
16 °C 10 km+ 1.200 ft 300° 300° 8 kt METAR LFBC 260200Z AUTO 30008KT 9999 BKN012 BKN017 OVC072 16/14 Q1017
03:30
M
16 °C 10 km+ 1.300 ft 280° 280° 6 kt METAR LFBC 260130Z AUTO 28006KT 250V310 9999 OVC013 16/14 Q1017
03:00
M
16 °C 10 km+ 1.200 ft 290° 290° 7 kt METAR LFBC 260100Z AUTO 29007KT 9999 BKN012 OVC054 16/14 Q1017
02:30
M
16 °C 10 km+ 1.100 ft 290° 290° 6 kt METAR LFBC 260030Z AUTO 29006KT 260V320 9999 BKN011 BKN054 OVC074 16/14 Q1017
02:00
M
16 °C 10 km+ 1.100 ft 290° 290° 7 kt METAR LFBC 260000Z AUTO 29007KT 260V330 9999 OVC011 16/14 Q1017
01:30
M
16 °C 10 km+ 1.200 ft 300° 300° 6 kt METAR LFBC 252330Z AUTO 30006KT 270V340 9999 OVC012 16/14 Q1017
01:00
M
16 °C 10 km+ 1.400 ft 290° 290° 5 kt METAR LFBC 252300Z AUTO 29005KT 230V350 9999 BKN014 OVC140 16/14 Q1017
00:30
V
16 °C 10 km+ 14.000 ft 280° 280° 4 kt METAR LFBC 252230Z AUTO 28004KT 210V330 9999 FEW013 OVC140 16/14 Q1017
00:00
V
16 °C 10 km+ - 310° 310° 4 kt METAR LFBC 252200Z AUTO 31004KT 270V350 CAVOK 16/14 Q1017

25 mai 2024

Temps Code Temps Temp. Vue Base cloud Vent METAR/SPECI
23:30
V
16 °C 10 km+ - 310° 310° 6 kt METAR LFBC 252130Z AUTO 31006KT 280V340 CAVOK 16/14 Q1017
23:00
V
17 °C 10 km+ - 310° 310° 5 kt METAR LFBC 252100Z AUTO 31005KT 270V350 CAVOK 17/14 Q1016
22:30
V
17 °C 10 km+ - 290° 290° 7 kt METAR LFBC 252030Z AUTO 29007KT CAVOK 17/15 Q1016
22:00
V
19 °C 10 km+ - 290° 290° 10 kt METAR LFBC 252000Z AUTO 29010KT 260V320 CAVOK 19/14 Q1015
21:30
V
20 °C 10 km+ - 280° 280° 7 kt METAR LFBC 251930Z AUTO 28007KT CAVOK 20/13 Q1015
21:00
V
20 °C 10 km+ - 300° 300° 6 kt METAR LFBC 251900Z AUTO 30006KT CAVOK 20/12 Q1015
20:30
V
21 °C 10 km+ - 300° 300° 8 kt METAR LFBC 251830Z AUTO 30008KT CAVOK 21/11 Q1014
20:00
V
22 °C 10 km+ - 290° 290° 7 kt METAR LFBC 251800Z AUTO 29007KT 270V330 CAVOK 22/12 Q1014
19:30
V
23 °C 10 km+ - 290° 290° 6 kt METAR LFBC 251730Z AUTO 29006KT CAVOK 23/11 Q1014
19:00
V
24 °C 10 km+ - 290° 290° 7 kt METAR LFBC 251700Z AUTO 29007KT 270V330 CAVOK 24/11 Q1014
18:30
V
25 °C 10 km+ - 290° 290° 7 kt METAR LFBC 251630Z AUTO 29007KT 240V320 CAVOK 25/12 Q1014
18:00
V
25 °C 10 km+ - 250° 250° 8 kt METAR LFBC 251600Z AUTO 25008KT CAVOK 25/13 Q1014
17:30
V
25 °C 10 km+ - 240° 240° 6 kt METAR LFBC 251530Z AUTO 24006KT 200V270 CAVOK 25/12 Q1013
17:00
V
26 °C 10 km+ - 200° 200° 3 kt METAR LFBC 251500Z AUTO 20003KT 140V250 CAVOK 26/13 Q1013
16:30
V
26 °C 10 km+ - 180° 180° 4 kt METAR LFBC 251430Z AUTO 18004KT 120V240 CAVOK 26/12 Q1014
16:00
V
25 °C 10 km+ - 190° 190° 6 kt METAR LFBC 251400Z AUTO 19006KT 160V220 CAVOK 25/13 Q1014
15:30
V
25 °C 10 km+ - 180° 180° 5 kt METAR LFBC 251330Z AUTO 18005KT 140V210 CAVOK 25/13 Q1014
15:00
V
25 °C 10 km+ - Var Var 6 kt METAR LFBC 251300Z AUTO VRB06KT CAVOK 25/13 Q1014
14:30
V
24 °C 10 km+ - 160° 160° 7 kt METAR LFBC 251230Z AUTO 16007KT 100V190 CAVOK 24/12 Q1014
14:00
V
24 °C 10 km+ - 140° 140° 9 kt METAR LFBC 251200Z AUTO 14009KT 110V190 CAVOK 24/11 Q1014
13:30
V
23 °C 10 km+ - 120° 120° 10 kt METAR LFBC 251130Z AUTO 12010KT 090V150 CAVOK 23/12 Q1015
13:00
V
22 °C 10 km+ - 130° 130° 10 kt METAR LFBC 251100Z AUTO 13010KT CAVOK 22/12 Q1015
12:30
V
22 °C 10 km+ - 140° 140° 10 kt METAR LFBC 251030Z AUTO 14010KT 100V170 CAVOK 22/12 Q1015
12:00
V
22 °C 10 km+ - 130° 130° 11 kt METAR LFBC 251000Z AUTO 13011KT 090V170 CAVOK 22/12 Q1015
11:30
V
21 °C 10 km+ - 130° 130° 11 kt METAR LFBC 250930Z AUTO 13011KT 100V170 CAVOK 21/12 Q1015
11:00
V
19 °C 10 km+ - 120° 120° 9 kt METAR LFBC 250900Z AUTO 12009KT CAVOK 19/13 Q1015
10:30
V
18 °C 10 km+ - 120° 120° 10 kt METAR LFBC 250830Z AUTO 12010KT CAVOK 18/12 Q1015
10:00
V
17 °C 10 km+ - 120° 120° 7 kt METAR LFBC 250800Z AUTO 12007KT CAVOK 17/12 Q1016
09:30
V
16 °C 10 km+ - 130° 130° 8 kt METAR LFBC 250730Z AUTO 13008KT CAVOK 16/12 Q1016
09:00
V
15 °C 10 km+ - 120° 120° 5 kt METAR LFBC 250700Z AUTO 12005KT 090V150 CAVOK 15/12 Q1016
08:30
V
13 °C 10 km+ - 110° 110° 4 kt METAR LFBC 250630Z AUTO 11004KT CAVOK 13/11 Q1016
08:00
V
12 °C 10 km+ - 090° 090° 2 kt METAR LFBC 250600Z AUTO 09002KT CAVOK 12/10 Q1016
Signaler les modifications